Terminal Aerodrome Forecast
Issued by NWS

Home | Current Version | Previous Version | Text Only | Print | Product List | Glossary On
Versions: 1 2 3 4 5 6 7 8 9 10 11 12 13 14 15
000
FTUS43 KILX 191400 AAA
TAFBMI
TAF AMD
KBMI 191409Z 1914/2012 13010KT P6SM SKC
     FM191500 16012KT P6SM SKC
     FM200600 19008KT P6SM SCT250=

USA.gov is the U.S. government's official web portal to all federal, state and local government web resources and services.